Terminal Aerodrome Forecast
Issued by NWS Anchorage, AK

Home | Current Version | Previous Version | Text Only | Print | Product List | Glossary On
Versions: 1 2 3 4 5 6 7 8 9 10 11 12 13 14 15 16 17 18 19 20 21 22 23 24 25 26 27 28 29 30 31 32 33 34 35 36
000
FTAK31 PANC 301738
TAFANC
TAF
PANC 301738Z 3018/0124 VRB06KT P6SM VCSH SCT050 BKN080
     FM010000 16007KT P6SM VCSH SCT050 BKN080
     FM010300 16010G17KT P6SM VCSH SCT040 BKN080
     FM010800 VRB06KT P6SM VCSH BKN060
     FM012100 17012G20KT P6SM VCSH BKN060=

USA.gov is the U.S. government's official web portal to all federal, state and local government web resources and services.